首页
METAR-TAF:

METAR-TAF

机场 :

特尔古穆列什, 罗马尼亚

纬度: 46-32N, 经度: 024-32E, 海拔: 308米

当前天气观测

该预报发布于18分钟前的01:00 UTC
风速4节,风向东北,在东转东南之间变化
温度 -2°C
湿度 100%
气压 1019 hPa
能見度: 3700

METAR: LRTM 080100Z AUTO 04004KT 010V110 3700 BKN038/// M02/M02 Q1019 REUP

时间: 03:18 (01:18 UTC)

预报

该预报发布于8小时和18分钟前的17:00 UTC
预报有效从07日的 18点(UTC)到 08日的 03点(UTC)
风速4节,风向多变
能見度: 3000
多云层高于500英尺
多云层高于3000英尺
轻雾
几率 30% :
短暂存在
从 08日的 00点(UTC)到 08日的 03点(UTC)
能見度: 1500
多云层高于200英尺
阴天层高于2000英尺
(小) 冻, 雨, 轻雾

TAF: LRTM 071700Z 0718/0803 VRB04KT 3000 BR BKN005 BKN030 PROB30 TEMPO 0800/0803 1500 -FZRA BR BKN002 OVC020

超过4000个机场的气象观测和天气预报(METAR&TAF报告)。

可查询的气象台以黄色和红色小点在地图上表示。

将鼠标移到小点上方,可查看气象台名称。

然后点击查看天气观测和预报。

如需切换地图:点击带黑十字的绿色按钮放大地图;点击带横线的绿色按钮缩小地图;或者点击绿色箭头查看邻近地区的地图。


METAR-TAF: